createdAt,value
2022-09-24T00:01:36.724Z,27.50
2022-09-24T00:04:07.251Z,27.33
2022-09-24T00:06:41.968Z,27.17
2022-09-24T00:09:09.000Z,27.35
2022-09-24T00:11:35.822Z,27.20
2022-09-24T00:14:03.033Z,29.80
2022-09-24T00:16:33.985Z,30.05
2022-09-24T00:19:02.797Z,28.77
2022-09-24T00:21:34.938Z,29.05
2022-09-24T00:24:05.617Z,27.75
2022-09-24T00:26:50.532Z,27.67
2022-09-24T00:29:23.885Z,27.92
2022-09-24T00:31:52.247Z,29.23
2022-09-24T00:34:20.482Z,29.27
2022-09-24T00:39:14.757Z,28.45
2022-09-24T00:41:48.041Z,28.45
2022-09-24T00:44:45.511Z,28.27
2022-09-24T00:47:17.695Z,27.58
2022-09-24T00:49:47.977Z,27.80
2022-09-24T00:52:15.772Z,27.48
2022-09-24T00:54:44.185Z,27.90
2022-09-24T00:57:12.136Z,29.15
2022-09-24T00:59:40.823Z,26.95
2022-09-24T01:02:08.783Z,27.10
2022-09-24T01:04:35.812Z,26.00
2022-09-24T01:07:03.268Z,26.90
2022-09-24T01:09:30.395Z,28.27
2022-09-24T01:12:17.973Z,27.90
2022-09-24T01:15:03.562Z,28.70
2022-09-24T01:17:39.207Z,26.40
2022-09-24T01:20:19.882Z,28.38
2022-09-24T01:22:55.809Z,26.60
2022-09-24T01:25:40.370Z,28.02
2022-09-24T01:28:52.054Z,26.92
2022-09-24T01:31:29.764Z,29.05
2022-09-24T01:34:01.934Z,28.55
2022-09-24T01:36:30.498Z,27.10
2022-09-24T01:38:58.726Z,27.05
2022-09-24T01:43:53.250Z,27.05
2022-09-24T01:46:21.562Z,28.75
2022-09-24T01:48:49.142Z,26.38
2022-09-24T01:51:30.748Z,28.38
2022-09-24T01:54:28.489Z,27.58
2022-09-24T01:59:50.335Z,27.60
2022-09-24T02:02:37.263Z,28.48
2022-09-24T02:05:14.772Z,28.50
2022-09-24T02:08:11.926Z,28.15
2022-09-24T02:10:46.462Z,28.23
2022-09-24T02:13:17.466Z,27.25
2022-09-24T02:15:50.343Z,29.42
2022-09-24T02:18:24.578Z,29.00
2022-09-24T02:20:52.622Z,28.02
2022-09-24T02:23:20.661Z,30.70
2022-09-24T02:25:57.936Z,29.23
2022-09-24T02:28:25.688Z,29.38
2022-09-24T02:31:05.185Z,28.10
2022-09-24T02:33:52.712Z,28.77
2022-09-24T02:36:19.671Z,33.05
2022-09-24T02:38:47.068Z,30.75
2022-09-24T02:41:14.766Z,32.22
2022-09-24T02:43:41.514Z,33.30
2022-09-24T02:46:10.236Z,29.48
2022-09-24T02:48:37.593Z,30.08
2022-09-24T02:51:05.276Z,32.07
2022-09-24T02:53:32.762Z,29.95
2022-09-24T02:56:00.854Z,29.95
2022-09-24T03:00:55.626Z,33.07
2022-09-24T03:03:23.421Z,30.08
2022-09-24T03:05:55.576Z,31.23
2022-09-24T03:08:25.099Z,30.77
2022-09-24T03:10:52.050Z,33.78
2022-09-24T03:13:19.001Z,30.38
2022-09-24T03:15:46.511Z,32.65
2022-09-24T03:18:14.023Z,30.02
2022-09-24T03:20:40.833Z,36.13
2022-09-24T03:23:08.034Z,32.80
2022-09-24T03:25:34.829Z,29.80
2022-09-24T03:28:01.767Z,31.98
2022-09-24T03:30:47.281Z,32.58
2022-09-24T03:33:14.014Z,29.50
2022-09-24T03:35:40.831Z,31.67
2022-09-24T03:38:07.510Z,33.20
2022-09-24T03:40:34.332Z,30.83
2022-09-24T03:43:01.095Z,31.58
2022-09-24T03:45:27.831Z,32.97
2022-09-24T03:47:55.342Z,30.92
2022-09-24T03:50:22.121Z,31.55
2022-09-24T03:52:48.814Z,31.42
2022-09-24T03:55:15.623Z,30.42
2022-09-24T03:57:42.351Z,34.53
2022-09-24T04:00:09.913Z,32.25
2022-09-24T04:02:36.818Z,30.58
2022-09-24T04:05:04.169Z,29.88
2022-09-24T04:07:31.148Z,31.67
2022-09-24T04:09:57.845Z,31.15
2022-09-24T04:12:24.637Z,33.78
2022-09-24T04:14:51.334Z,31.10
2022-09-24T04:17:18.040Z,28.60
2022-09-24T04:19:44.762Z,34.95
2022-09-24T04:22:11.535Z,31.40
2022-09-24T04:24:38.726Z,30.13
2022-09-24T04:27:05.452Z,28.63
2022-09-24T04:29:32.159Z,29.40
2022-09-24T04:31:58.909Z,36.28
2022-09-24T04:34:25.642Z,31.63
2022-09-24T04:36:52.417Z,29.45
2022-09-24T04:39:19.621Z,29.88
2022-09-24T04:41:48.470Z,28.67
2022-09-24T04:44:18.170Z,30.05
2022-09-24T04:46:44.991Z,31.85
2022-09-24T04:49:11.904Z,30.20
2022-09-24T04:51:38.647Z,29.02
2022-09-24T04:54:05.587Z,29.77
2022-09-24T04:56:32.377Z,29.13
2022-09-24T04:58:59.722Z,29.17
2022-09-24T05:01:26.820Z,31.77
2022-09-24T05:03:53.782Z,30.15
2022-09-24T05:06:20.609Z,28.35
2022-09-24T05:08:47.286Z,29.35
2022-09-24T05:11:14.062Z,29.20
2022-09-24T05:13:40.792Z,30.23
2022-09-24T05:16:07.572Z,31.52
2022-09-24T05:18:35.589Z,30.67
2022-09-24T05:21:02.790Z,30.83
2022-09-24T05:23:29.538Z,35.10
2022-09-24T05:26:14.992Z,32.95
2022-09-24T05:28:42.819Z,30.73
2022-09-24T05:31:10.738Z,30.55
2022-09-24T05:33:38.084Z,31.90
2022-09-24T05:36:04.973Z,32.58
2022-09-24T05:38:33.008Z,34.13
2022-09-24T05:41:00.002Z,30.88
2022-09-24T05:43:27.857Z,34.65
2022-09-24T05:45:54.947Z,33.25
2022-09-24T05:48:21.665Z,34.38
2022-09-24T05:50:48.352Z,33.47
2022-09-24T05:53:15.092Z,32.55
2022-09-24T05:55:43.095Z,33.75
2022-09-24T05:58:13.924Z,31.80
2022-09-24T06:00:40.661Z,33.05
2022-09-24T06:03:13.005Z,31.50
2022-09-24T06:05:44.838Z,31.77
2022-09-24T06:08:11.975Z,32.50
2022-09-24T06:10:39.024Z,33.10
2022-09-24T06:13:06.139Z,32.50
2022-09-24T06:15:33.347Z,33.45
2022-09-24T06:18:00.081Z,33.73
2022-09-24T06:20:26.860Z,31.58
2022-09-24T06:22:57.549Z,35.13
2022-09-24T06:25:25.621Z,34.45
2022-09-24T06:28:00.228Z,35.65
2022-09-24T06:30:27.973Z,31.63
2022-09-24T06:32:55.994Z,35.65
2022-09-24T06:35:22.689Z,34.10
2022-09-24T06:37:53.132Z,31.90
2022-09-24T06:40:20.500Z,33.55
2022-09-24T06:42:52.592Z,31.70
2022-09-24T06:45:20.967Z,36.75
2022-09-24T06:47:55.450Z,35.97
2022-09-24T06:50:23.942Z,33.88
2022-09-24T06:52:50.971Z,36.05
2022-09-24T06:55:19.153Z,36.80
2022-09-24T07:00:14.350Z,33.22
2022-09-24T07:05:11.754Z,32.60
2022-09-24T07:07:38.548Z,32.42
2022-09-24T07:10:07.333Z,27.60
2022-09-24T07:12:36.925Z,24.25
2022-09-24T07:15:03.993Z,26.55
2022-09-24T07:17:33.934Z,24.08
2022-09-24T07:20:01.066Z,26.50
2022-09-24T07:22:28.249Z,25.88
2022-09-24T07:24:55.534Z,24.15
2022-09-24T07:27:22.310Z,25.27
2022-09-24T07:29:49.439Z,24.00
2022-09-24T07:32:17.509Z,24.60
2022-09-24T07:34:45.226Z,28.10
2022-09-24T07:37:12.701Z,24.58
2022-09-24T07:39:39.422Z,25.83
2022-09-24T07:42:06.175Z,24.98
2022-09-24T07:44:32.926Z,28.25
2022-09-24T07:47:00.208Z,23.52
2022-09-24T07:49:29.045Z,24.87
2022-09-24T07:51:55.820Z,24.25
2022-09-24T07:54:22.577Z,24.92
2022-09-24T07:56:49.329Z,24.40
2022-09-24T07:59:16.101Z,24.15
2022-09-24T08:01:43.398Z,23.42
2022-09-24T08:04:10.410Z,24.03
2022-09-24T08:06:40.474Z,25.73
2022-09-24T08:09:09.696Z,26.05
2022-09-24T08:11:36.917Z,26.92
2022-09-24T08:14:03.672Z,23.35
2022-09-24T08:16:30.888Z,26.20
2022-09-24T08:18:57.645Z,23.90
2022-09-24T08:21:24.351Z,27.17
2022-09-24T08:23:51.146Z,25.77
2022-09-24T08:26:18.006Z,28.08
2022-09-24T08:28:44.796Z,28.58
2022-09-24T08:31:13.279Z,23.85
2022-09-24T08:33:40.305Z,23.73
2022-09-24T08:36:09.300Z,25.42
2022-09-24T08:38:36.098Z,24.15
2022-09-24T08:41:37.845Z,27.85
2022-09-24T08:44:43.639Z,24.60
2022-09-24T08:47:25.704Z,26.02
2022-09-24T08:50:03.379Z,25.33
2022-09-24T08:52:51.247Z,24.17
2022-09-24T08:58:22.628Z,24.40
2022-09-24T09:01:02.344Z,27.05
2022-09-24T09:04:01.768Z,25.15
2022-09-24T09:06:46.577Z,25.27
2022-09-24T09:09:38.506Z,26.40
2022-09-24T09:12:12.655Z,27.33
2022-09-24T09:14:58.402Z,27.00
2022-09-24T09:17:47.198Z,26.63
2022-09-24T09:20:22.274Z,27.33
2022-09-24T09:22:51.765Z,26.25
2022-09-24T09:25:25.838Z,28.13
2022-09-24T09:28:17.482Z,28.08
2022-09-24T09:30:56.434Z,27.08
2022-09-24T09:33:41.327Z,25.17
2022-09-24T09:36:20.321Z,24.95
2022-09-24T09:39:31.487Z,26.98
2022-09-24T09:42:09.572Z,25.95
2022-09-24T09:47:31.439Z,28.40
2022-09-24T09:50:05.840Z,23.60
2022-09-24T09:52:36.893Z,23.05
2022-09-24T09:55:05.241Z,25.35
2022-09-24T09:57:34.101Z,23.15
2022-09-24T10:00:01.201Z,22.73
2022-09-24T10:02:31.585Z,24.75
2022-09-24T10:05:02.122Z,22.60
2022-09-24T10:07:31.556Z,26.67
2022-09-24T10:10:20.992Z,24.40
2022-09-24T10:12:48.193Z,23.40
2022-09-24T10:15:15.106Z,22.50
2022-09-24T10:17:44.106Z,26.05
2022-09-24T10:20:27.610Z,22.77
2022-09-24T10:22:58.768Z,22.67
2022-09-24T10:25:30.392Z,21.98
2022-09-24T10:28:21.731Z,20.40
2022-09-24T10:31:03.320Z,20.45
2022-09-24T10:33:40.761Z,19.88
2022-09-24T10:36:15.126Z,21.17
2022-09-24T10:38:41.873Z,21.98
2022-09-24T10:41:29.694Z,21.80
2022-09-24T10:46:36.620Z,22.63
2022-09-24T10:49:12.680Z,24.13
2022-09-24T10:51:56.726Z,23.27
2022-09-24T10:54:26.512Z,20.33
2022-09-24T10:56:55.768Z,22.60
2022-09-24T11:00:02.738Z,22.50
2022-09-24T11:03:08.841Z,22.73
2022-09-24T11:05:53.052Z,19.85
2022-09-24T11:08:29.249Z,23.83
2022-09-24T11:11:19.460Z,22.30
2022-09-24T11:14:10.469Z,23.13
2022-09-24T11:16:55.203Z,24.38
2022-09-24T11:19:52.141Z,22.20
2022-09-24T11:22:41.373Z,19.77
2022-09-24T11:25:17.155Z,22.25
2022-09-24T11:28:07.388Z,20.60
2022-09-24T11:30:54.780Z,18.95
2022-09-24T11:34:01.846Z,25.98
2022-09-24T11:37:04.617Z,23.00
2022-09-24T11:39:40.250Z,20.08
2022-09-24T11:42:22.453Z,19.73
2022-09-24T11:45:01.965Z,20.88
2022-09-24T11:47:28.633Z,18.17
2022-09-24T11:50:13.115Z,20.67
2022-09-24T11:52:50.863Z,19.73
2022-09-24T11:55:34.359Z,26.50
2022-09-24T11:58:18.590Z,24.02
2022-09-24T12:00:59.168Z,23.55
2022-09-24T12:03:43.902Z,17.00
2022-09-24T12:06:54.269Z,17.85
2022-09-24T12:09:35.125Z,18.85
2022-09-24T12:12:15.375Z,19.80
2022-09-24T12:14:51.495Z,19.40
2022-09-24T12:17:24.070Z,22.20
2022-09-24T12:19:57.402Z,18.30
2022-09-24T12:22:25.465Z,19.95
2022-09-24T12:24:59.228Z,19.02
2022-09-24T12:27:35.263Z,21.90
2022-09-24T12:30:40.326Z,20.58
2022-09-24T12:33:30.181Z,20.38
2022-09-24T12:36:13.789Z,20.10
2022-09-24T12:38:48.297Z,20.63
2022-09-24T12:41:23.900Z,21.50
2022-09-24T12:44:12.459Z,21.15
2022-09-24T12:46:52.287Z,19.85
2022-09-24T12:49:25.140Z,20.27
2022-09-24T12:52:05.096Z,17.67
2022-09-24T12:54:37.719Z,18.80
2022-09-24T12:57:26.396Z,17.35
2022-09-24T12:59:56.143Z,23.02
2022-09-24T13:02:43.099Z,17.55
2022-09-24T13:05:27.110Z,18.58
2022-09-24T13:07:56.927Z,17.48
2022-09-24T13:10:29.925Z,16.77
2022-09-24T13:13:00.075Z,18.73
2022-09-24T13:15:38.700Z,18.65
2022-09-24T13:18:11.731Z,18.85
2022-09-24T13:20:43.781Z,17.95
2022-09-24T13:23:19.618Z,17.83
2022-09-24T13:25:57.698Z,18.23
2022-09-24T13:31:29.962Z,15.32
2022-09-24T13:34:12.927Z,16.83
2022-09-24T13:37:03.677Z,15.00
2022-09-24T13:39:30.358Z,14.48
2022-09-24T13:42:13.738Z,15.80
2022-09-24T13:44:49.829Z,16.42
2022-09-24T13:47:31.659Z,14.52
2022-09-24T13:50:20.349Z,16.45
2022-09-24T13:52:58.316Z,16.40
2022-09-24T13:58:25.746Z,18.98
2022-09-24T14:00:53.107Z,17.02
2022-09-24T14:03:25.708Z,17.02
2022-09-24T14:05:52.746Z,18.85
2022-09-24T14:08:23.288Z,17.50
2022-09-24T14:10:56.200Z,16.25
2022-09-24T14:13:26.827Z,17.20
2022-09-24T14:16:07.540Z,16.77
2022-09-24T14:18:34.656Z,16.60
2022-09-24T14:21:37.968Z,19.98
2022-09-24T14:24:12.590Z,16.50
2022-09-24T14:26:47.682Z,20.17
2022-09-24T14:29:23.350Z,14.48
2022-09-24T14:31:57.421Z,19.35
2022-09-24T14:34:43.967Z,19.80
2022-09-24T14:37:19.105Z,16.85
2022-09-24T14:39:48.540Z,15.65
2022-09-24T14:42:32.306Z,16.73
2022-09-24T14:45:01.458Z,20.17
2022-09-24T14:47:31.120Z,17.05
2022-09-24T14:49:58.214Z,17.17
2022-09-24T14:52:28.121Z,17.00
2022-09-24T14:55:13.341Z,17.63
2022-09-24T14:57:43.313Z,15.60
2022-09-24T15:00:50.016Z,16.73
2022-09-24T15:03:20.680Z,17.75
2022-09-24T15:05:48.169Z,16.65
2022-09-24T15:08:24.069Z,20.30
2022-09-24T15:10:58.719Z,17.20
2022-09-24T15:13:31.366Z,17.58
2022-09-24T15:16:20.240Z,21.58
2022-09-24T15:18:56.812Z,16.58
2022-09-24T15:21:24.109Z,20.90
2022-09-24T15:23:50.936Z,20.40
2022-09-24T15:26:17.691Z,17.83
2022-09-24T15:28:44.683Z,17.90
2022-09-24T15:31:11.976Z,18.80
2022-09-24T15:33:38.798Z,19.77
2022-09-24T15:36:06.126Z,18.77
2022-09-24T15:38:32.913Z,18.37
2022-09-24T15:41:00.832Z,19.92
2022-09-24T15:43:27.638Z,18.42
2022-09-24T15:45:54.863Z,19.10
2022-09-24T15:48:21.623Z,19.17
2022-09-24T15:50:50.387Z,18.85
2022-09-24T15:53:20.793Z,23.80
2022-09-24T15:55:52.544Z,18.67
2022-09-24T15:58:19.821Z,17.55
2022-09-24T16:00:46.931Z,19.67
2022-09-24T16:03:27.843Z,20.05
2022-09-24T16:05:55.961Z,17.55
2022-09-24T16:10:50.348Z,18.00
2022-09-24T16:13:18.815Z,18.15
2022-09-24T16:15:46.350Z,19.75
2022-09-24T16:18:22.201Z,18.95
2022-09-24T16:20:51.430Z,17.58
2022-09-24T16:23:18.698Z,17.88
2022-09-24T16:25:56.986Z,17.23
2022-09-24T16:28:24.882Z,16.02
2022-09-24T16:30:54.093Z,15.38
2022-09-24T16:33:21.489Z,18.25
2022-09-24T16:35:48.263Z,18.85
2022-09-24T16:38:20.293Z,18.98
2022-09-24T16:40:49.330Z,17.20
2022-09-24T16:43:16.372Z,17.67
2022-09-24T16:45:45.611Z,17.60
2022-09-24T16:48:13.577Z,16.58
2022-09-24T16:50:40.708Z,16.35
2022-09-24T16:53:07.910Z,15.77
2022-09-24T16:55:34.722Z,17.27
2022-09-24T16:58:01.463Z,17.55
2022-09-24T17:00:28.204Z,18.25
2022-09-24T17:02:54.998Z,16.55
2022-09-24T17:05:24.155Z,19.00
2022-09-24T17:07:50.858Z,18.40
2022-09-24T17:10:18.164Z,16.42
2022-09-24T17:12:48.205Z,17.10
2022-09-24T17:15:16.422Z,18.52
2022-09-24T17:17:49.526Z,17.70
2022-09-24T17:20:18.029Z,18.52
2022-09-24T17:22:45.068Z,17.25
2022-09-24T17:25:11.923Z,21.60
2022-09-24T17:27:40.060Z,17.80
2022-09-24T17:30:07.838Z,18.58
2022-09-24T17:32:34.629Z,16.52
2022-09-24T17:35:01.424Z,16.65
2022-09-24T17:37:28.397Z,17.70
2022-09-24T17:39:55.181Z,19.65
2022-09-24T17:42:21.938Z,18.92
2022-09-24T17:44:48.705Z,17.85
2022-09-24T17:47:15.492Z,17.85
2022-09-24T17:49:42.717Z,17.77
2022-09-24T17:52:09.519Z,15.85
2022-09-24T17:54:37.027Z,16.88
2022-09-24T17:57:03.792Z,17.67
2022-09-24T17:59:30.582Z,18.95
2022-09-24T18:01:59.623Z,17.52
2022-09-24T18:04:28.201Z,18.80
2022-09-24T18:06:55.009Z,18.13
2022-09-24T18:09:22.195Z,17.77
2022-09-24T18:11:51.379Z,15.70
2022-09-24T18:14:22.745Z,19.55
2022-09-24T18:16:51.335Z,18.90
2022-09-24T18:19:18.126Z,17.35
2022-09-24T18:21:48.767Z,16.50
2022-09-24T18:24:16.420Z,16.08
2022-09-24T18:26:43.299Z,16.90
2022-09-24T18:29:17.668Z,18.08
2022-09-24T18:31:45.487Z,17.75
2022-09-24T18:34:15.028Z,18.95
2022-09-24T18:36:43.996Z,19.05
2022-09-24T18:39:13.398Z,20.05
2022-09-24T18:41:41.600Z,18.50
2022-09-24T18:46:35.955Z,16.88
2022-09-24T18:49:03.527Z,19.98
2022-09-24T18:51:33.315Z,18.00
2022-09-24T18:54:12.151Z,17.80
2022-09-24T18:56:39.902Z,20.55
2022-09-24T18:59:10.727Z,17.65
2022-09-24T19:01:39.481Z,17.73
2022-09-24T19:04:10.514Z,17.35
2022-09-24T19:06:40.048Z,17.98
2022-09-24T19:09:08.466Z,18.20
2022-09-24T19:11:35.743Z,17.90
2022-09-24T19:14:03.325Z,17.67
2022-09-24T19:16:30.886Z,19.15
2022-09-24T19:18:59.705Z,19.88
2022-09-24T19:21:26.664Z,22.95
2022-09-24T19:23:56.148Z,19.88
2022-09-24T19:26:24.455Z,18.05
2022-09-24T19:28:51.674Z,21.80
2022-09-24T19:31:27.250Z,18.27
2022-09-24T19:33:57.310Z,18.95
2022-09-24T19:36:24.322Z,19.10
2022-09-24T19:38:51.892Z,19.63
2022-09-24T19:41:24.844Z,18.95
2022-09-24T19:43:52.881Z,19.30
2022-09-24T19:46:22.752Z,17.98
2022-09-24T19:48:50.276Z,19.02
2022-09-24T19:51:21.953Z,18.33
2022-09-24T19:54:10.239Z,19.13
2022-09-24T19:56:38.148Z,18.52
2022-09-24T19:59:05.811Z,19.65
2022-09-24T20:01:33.692Z,18.83
2022-09-24T20:04:04.589Z,21.38
2022-09-24T20:06:33.842Z,18.15
2022-09-24T20:09:00.995Z,19.80
2022-09-24T20:11:29.343Z,19.52
2022-09-24T20:13:56.667Z,16.63
2022-09-24T20:16:26.336Z,15.05
2022-09-24T20:18:57.617Z,19.45
2022-09-24T20:21:30.005Z,14.63
2022-09-24T20:23:57.886Z,15.73
2022-09-24T20:26:44.409Z,15.18
2022-09-24T20:29:13.742Z,16.95
2022-09-24T20:31:42.267Z,14.15
2022-09-24T20:34:09.358Z,15.75
2022-09-24T20:36:36.433Z,14.65
2022-09-24T20:39:03.956Z,14.85
2022-09-24T20:41:31.259Z,13.70
2022-09-24T20:43:58.038Z,14.65
2022-09-24T20:46:27.675Z,13.10
2022-09-24T20:48:59.916Z,13.35
2022-09-24T20:51:28.892Z,15.48
2022-09-24T20:53:56.152Z,12.55
2022-09-24T20:56:22.915Z,13.57
2022-09-24T20:58:51.576Z,15.20
2022-09-24T21:01:21.961Z,12.13
2022-09-24T21:03:51.849Z,12.80
2022-09-24T21:06:22.835Z,16.35
2022-09-24T21:08:51.421Z,13.27
2022-09-24T21:11:21.295Z,16.08
2022-09-24T21:13:51.660Z,11.45
2022-09-24T21:16:28.858Z,12.93
2022-09-24T21:18:55.738Z,13.77
2022-09-24T21:21:28.810Z,13.00
2022-09-24T21:23:57.706Z,11.48
2022-09-24T21:26:25.580Z,12.20
2022-09-24T21:28:55.602Z,11.48
2022-09-24T21:31:27.356Z,13.38
2022-09-24T21:33:54.489Z,14.05
2022-09-24T21:36:24.298Z,11.70
2022-09-24T21:39:02.279Z,16.15
2022-09-24T21:41:31.772Z,10.23
2022-09-24T21:43:58.889Z,12.98
2022-09-24T21:46:27.161Z,8.80
2022-09-24T21:48:55.609Z,9.60
2022-09-24T21:51:22.926Z,10.85
2022-09-24T21:53:56.681Z,10.47
2022-09-24T21:56:24.900Z,11.02
2022-09-24T21:58:52.968Z,9.30
2022-09-24T22:06:14.893Z,10.30
2022-09-24T22:08:42.603Z,10.40
2022-09-24T22:11:10.960Z,9.68
2022-09-24T22:13:39.026Z,9.60
2022-09-24T22:21:09.846Z,9.85
2022-09-24T22:23:36.978Z,13.75
2022-09-24T22:26:05.055Z,8.30
2022-09-24T22:31:03.138Z,9.93
2022-09-24T22:33:49.268Z,9.40
2022-09-24T22:36:16.581Z,12.90
2022-09-24T22:38:47.826Z,9.37
2022-09-24T22:41:15.061Z,8.43
2022-09-24T22:43:42.382Z,9.17
2022-09-24T22:46:11.471Z,11.98
2022-09-24T22:48:39.340Z,10.15
2022-09-24T22:51:08.098Z,8.52
2022-09-24T22:53:39.357Z,10.65
2022-09-24T22:56:13.833Z,9.02
2022-09-24T22:58:44.954Z,11.75
2022-09-24T23:01:23.067Z,8.52
2022-09-24T23:03:54.825Z,11.30
2022-09-24T23:06:22.761Z,9.65
2022-09-24T23:08:49.946Z,8.77
2022-09-24T23:11:19.267Z,11.13
2022-09-24T23:13:47.690Z,11.88
2022-09-24T23:16:20.978Z,9.30
2022-09-24T23:18:51.412Z,12.05
2022-09-24T23:21:19.927Z,11.98
2022-09-24T23:23:47.143Z,10.48
2022-09-24T23:26:18.652Z,8.20
2022-09-24T23:28:50.651Z,9.20
2022-09-24T23:31:17.804Z,9.45
2022-09-24T23:33:44.702Z,9.03
2022-09-24T23:36:14.241Z,10.95
2022-09-24T23:38:42.112Z,7.10
2022-09-24T23:41:10.480Z,9.68
2022-09-24T23:43:37.540Z,8.35
2022-09-24T23:46:04.780Z,8.15
2022-09-24T23:48:32.187Z,8.10
2022-09-24T23:50:59.210Z,9.13
2022-09-24T23:53:26.635Z,9.45
2022-09-24T23:55:54.177Z,8.70
2022-09-24T23:58:23.795Z,9.95
